createdAt,value
2023-01-23T09:38:38.193Z,3.51
2023-01-23T09:41:23.435Z,3.77
2023-01-23T09:44:07.595Z,3.90
2023-01-23T10:02:26.479Z,3.79
2023-01-23T10:04:55.103Z,3.92
2023-01-23T10:08:41.171Z,4.08
2023-01-23T11:25:56.324Z,3.72
2023-01-23T11:28:48.191Z,3.80
2023-01-23T11:31:27.321Z,4.10
2023-01-23T11:40:34.167Z,4.19
2023-01-23T11:59:05.772Z,4.15
2023-01-23T12:02:20.451Z,4.26
2023-01-23T12:05:41.353Z,4.36
2023-01-23T12:09:16.721Z,4.55
2023-01-23T12:12:36.021Z,4.79
2023-01-23T12:15:40.152Z,4.70
2023-01-23T12:19:40.986Z,4.98
2023-01-23T12:22:22.867Z,4.88
2023-01-23T12:25:20.057Z,4.85
2023-01-23T12:27:57.855Z,5.13
2023-01-23T12:30:58.624Z,5.10
2023-01-23T12:33:59.669Z,5.17
2023-01-23T12:37:30.754Z,5.23
2023-01-23T12:40:13.000Z,5.21
2023-01-23T12:43:14.736Z,5.33
2023-01-23T12:45:59.461Z,5.36
2023-01-23T12:48:45.076Z,5.33
2023-01-23T12:51:36.558Z,5.33
2023-01-23T12:54:17.572Z,5.38
2023-01-23T12:56:46.191Z,5.46
2023-01-23T13:00:08.907Z,5.39
2023-01-23T13:03:22.947Z,5.20
2023-01-23T13:05:59.334Z,5.26
2023-01-23T13:09:28.054Z,5.38
2023-01-23T13:12:25.170Z,5.26
2023-01-23T13:15:30.934Z,5.38
2023-01-23T13:18:05.603Z,5.39
2023-01-23T13:21:11.040Z,5.33
2023-01-23T13:23:38.457Z,5.15
2023-01-23T13:26:23.191Z,5.31
2023-01-23T13:29:04.276Z,5.46
2023-01-23T13:31:47.536Z,5.17
2023-01-23T13:34:18.049Z,5.50
2023-01-23T13:37:15.185Z,5.34
2023-01-23T14:31:45.660Z,5.00
2023-01-23T14:34:24.410Z,5.02
2023-01-23T14:37:10.738Z,5.17
2023-01-23T14:39:39.784Z,5.06
2023-01-23T14:42:11.546Z,5.06
